createdAt,value
2023-11-30T00:01:27.406Z,11.97
2023-11-30T00:03:54.912Z,11.27
2023-11-30T00:06:22.103Z,11.43
2023-11-30T00:08:49.370Z,11.37
2023-11-30T00:11:16.972Z,11.27
2023-11-30T00:13:43.982Z,10.90
2023-11-30T00:16:11.829Z,11.93
2023-11-30T00:18:39.374Z,10.47
2023-11-30T00:21:06.909Z,10.10
2023-11-30T00:23:36.412Z,10.10
2023-11-30T00:26:03.754Z,9.90
2023-11-30T00:28:30.874Z,9.00
2023-11-30T00:30:58.000Z,9.97
2023-11-30T00:33:25.213Z,9.23
2023-11-30T00:35:52.470Z,10.77
2023-11-30T00:38:19.608Z,9.80
2023-11-30T00:40:46.779Z,9.27
2023-11-30T00:43:13.876Z,9.93
2023-11-30T00:45:41.125Z,9.40
2023-11-30T00:48:08.382Z,9.47
2023-11-30T00:50:35.518Z,9.93
2023-11-30T00:53:03.093Z,9.57
2023-11-30T00:55:30.183Z,10.07
2023-11-30T00:57:57.284Z,8.93
2023-11-30T01:00:24.684Z,9.87
2023-11-30T01:02:52.092Z,10.03
2023-11-30T01:05:19.209Z,9.52
2023-11-30T01:07:47.891Z,10.20
2023-11-30T01:10:14.938Z,8.63
2023-11-30T01:12:42.404Z,9.53
2023-11-30T01:15:10.434Z,11.53
2023-11-30T01:17:37.834Z,10.80
2023-11-30T01:20:05.589Z,10.37
2023-11-30T01:22:33.581Z,9.63
2023-11-30T01:25:00.593Z,10.93
2023-11-30T01:27:28.139Z,10.37
2023-11-30T01:29:55.582Z,11.73
2023-11-30T01:32:23.119Z,11.53
2023-11-30T01:34:50.157Z,11.73
2023-11-30T01:37:18.208Z,12.40
2023-11-30T01:39:45.252Z,11.40
2023-11-30T01:42:14.348Z,10.67
2023-11-30T01:44:41.739Z,11.57
2023-11-30T01:47:09.927Z,12.13
2023-11-30T01:49:37.094Z,10.93
2023-11-30T01:52:06.196Z,11.77
2023-11-30T01:54:33.633Z,11.80
2023-11-30T01:57:02.092Z,12.77
2023-11-30T01:59:29.852Z,11.90
2023-11-30T02:01:59.048Z,11.63
2023-11-30T02:04:27.465Z,11.17
2023-11-30T02:06:55.145Z,10.97
2023-11-30T02:09:23.289Z,10.93
2023-11-30T02:11:50.648Z,12.27
2023-11-30T02:14:18.903Z,12.33
2023-11-30T02:16:46.418Z,12.03
2023-11-30T02:19:13.642Z,12.27
2023-11-30T02:21:50.571Z,12.27
2023-11-30T02:24:17.874Z,12.67
2023-11-30T02:26:45.215Z,11.53
2023-11-30T02:29:16.916Z,11.63
2023-11-30T02:31:44.791Z,12.30
2023-11-30T02:34:12.087Z,11.33
2023-11-30T02:36:39.298Z,11.97
2023-11-30T02:39:06.715Z,12.60
2023-11-30T02:41:33.941Z,12.73
2023-11-30T02:44:01.170Z,12.00
2023-11-30T02:46:28.461Z,11.30
2023-11-30T02:48:55.695Z,11.13
2023-11-30T02:51:22.879Z,12.43
2023-11-30T02:53:50.151Z,11.63
2023-11-30T02:56:17.292Z,11.90
2023-11-30T02:58:44.467Z,11.77
2023-11-30T03:01:11.742Z,11.60
2023-11-30T03:03:39.098Z,12.47
2023-11-30T03:06:12.435Z,12.40
2023-11-30T03:08:39.865Z,12.43
2023-11-30T03:11:07.100Z,12.07
2023-11-30T03:13:34.308Z,11.93
2023-11-30T03:16:01.707Z,12.07
2023-11-30T03:18:28.929Z,16.07
2023-11-30T03:20:56.463Z,15.57
2023-11-30T03:23:23.638Z,14.33
2023-11-30T03:25:50.803Z,14.70
2023-11-30T03:28:17.984Z,15.80
2023-11-30T03:30:45.503Z,15.00
2023-11-30T03:33:12.743Z,15.30
2023-11-30T03:35:39.998Z,14.43
2023-11-30T03:38:07.163Z,14.77
2023-11-30T03:40:34.358Z,14.93
2023-11-30T03:43:01.669Z,14.83
2023-11-30T03:45:32.757Z,12.97
2023-11-30T03:48:02.607Z,12.60
2023-11-30T03:50:29.838Z,12.23
2023-11-30T03:52:57.069Z,12.67
2023-11-30T03:55:24.768Z,13.50
2023-11-30T03:57:51.969Z,13.57
2023-11-30T04:00:19.545Z,14.07
2023-11-30T04:02:47.257Z,13.53
2023-11-30T04:05:15.190Z,12.53
2023-11-30T04:07:42.851Z,12.50
2023-11-30T04:10:13.720Z,13.43
2023-11-30T04:12:42.281Z,13.43
2023-11-30T04:15:09.914Z,13.63
2023-11-30T04:17:37.193Z,13.80
2023-11-30T04:20:05.320Z,13.03
2023-11-30T04:22:32.462Z,13.63
2023-11-30T04:24:59.816Z,13.37
2023-11-30T04:27:27.212Z,12.00
2023-11-30T04:29:54.471Z,12.60
2023-11-30T04:32:21.757Z,11.03
2023-11-30T04:34:49.719Z,11.80
2023-11-30T04:37:16.930Z,11.73
2023-11-30T04:39:44.089Z,11.57
2023-11-30T04:42:11.426Z,12.83
2023-11-30T04:44:39.183Z,12.47
2023-11-30T04:47:06.915Z,11.00
2023-11-30T04:49:34.932Z,11.63
2023-11-30T04:52:02.297Z,12.03
2023-11-30T04:54:29.530Z,11.60
2023-11-30T04:56:56.796Z,11.03
2023-11-30T04:59:24.069Z,10.47
2023-11-30T05:01:51.345Z,11.10
2023-11-30T05:04:18.662Z,10.87
2023-11-30T05:06:45.979Z,10.60
2023-11-30T05:09:13.723Z,9.20
2023-11-30T05:11:41.032Z,11.50
2023-11-30T05:14:08.273Z,10.43
2023-11-30T05:16:35.491Z,10.87
2023-11-30T05:19:02.824Z,11.17
2023-11-30T05:21:30.133Z,12.87
2023-11-30T05:23:57.361Z,11.90
2023-11-30T05:26:24.608Z,11.63
2023-11-30T05:28:51.883Z,12.10
2023-11-30T05:31:19.115Z,13.10
2023-11-30T05:33:46.359Z,12.50
2023-11-30T05:36:13.807Z,12.17
2023-11-30T05:38:41.113Z,12.53
2023-11-30T05:41:08.365Z,12.47
2023-11-30T05:43:38.040Z,11.33
2023-11-30T05:46:06.605Z,12.80
2023-11-30T05:48:35.189Z,12.80
2023-11-30T05:51:02.662Z,12.17
2023-11-30T05:53:29.888Z,13.63
2023-11-30T05:55:57.077Z,15.20
2023-11-30T05:58:24.372Z,14.30
2023-11-30T06:00:51.530Z,14.20
2023-11-30T06:03:18.951Z,13.70
2023-11-30T06:05:46.196Z,14.47
2023-11-30T06:08:13.473Z,13.33
2023-11-30T06:10:40.676Z,13.80
2023-11-30T06:13:09.233Z,13.70
2023-11-30T06:15:36.669Z,12.83
2023-11-30T06:18:04.091Z,12.43
2023-11-30T06:20:32.699Z,14.20
2023-11-30T06:22:59.947Z,15.00
2023-11-30T06:25:27.539Z,14.43
2023-11-30T06:27:54.720Z,14.40
2023-11-30T06:30:22.074Z,12.83
2023-11-30T06:32:49.401Z,15.03
2023-11-30T06:35:16.886Z,14.67
2023-11-30T06:37:44.158Z,14.97
2023-11-30T06:40:11.699Z,16.10
2023-11-30T06:42:38.987Z,16.70
2023-11-30T06:45:06.968Z,17.47
2023-11-30T06:47:34.368Z,16.17
2023-11-30T06:50:01.983Z,17.07
2023-11-30T06:52:29.582Z,17.13
2023-11-30T06:54:56.906Z,16.13
2023-11-30T06:57:24.247Z,14.77
2023-11-30T06:59:51.597Z,15.67
2023-11-30T07:02:19.022Z,15.53
2023-11-30T07:04:46.428Z,15.93
2023-11-30T07:07:23.596Z,15.37
2023-11-30T07:09:58.178Z,16.20
2023-11-30T07:12:25.419Z,16.63
2023-11-30T07:14:52.750Z,16.70
2023-11-30T07:17:20.259Z,15.73
2023-11-30T07:19:47.544Z,14.70
2023-11-30T07:22:15.333Z,15.80
2023-11-30T07:24:45.964Z,16.80
2023-11-30T07:27:13.521Z,16.00
2023-11-30T07:29:40.912Z,14.70
2023-11-30T07:32:08.144Z,13.77
2023-11-30T07:34:37.098Z,13.93
2023-11-30T07:37:04.827Z,15.87
2023-11-30T07:39:32.641Z,16.50
2023-11-30T07:41:59.993Z,15.40
2023-11-30T07:44:29.486Z,16.20
2023-11-30T07:46:56.931Z,14.27
2023-11-30T07:49:24.119Z,13.60
2023-11-30T07:51:51.433Z,15.93
2023-11-30T07:54:19.152Z,15.33
2023-11-30T07:56:46.670Z,17.87
2023-11-30T07:59:14.273Z,19.67
2023-11-30T08:01:41.625Z,19.70
2023-11-30T08:04:09.030Z,19.13
2023-11-30T08:06:36.468Z,15.80
2023-11-30T08:09:04.991Z,19.40
2023-11-30T08:11:32.524Z,18.67
2023-11-30T08:13:59.824Z,17.70
2023-11-30T08:16:27.519Z,18.43
2023-11-30T08:18:54.766Z,18.52
2023-11-30T08:21:23.280Z,18.40
2023-11-30T08:23:50.955Z,18.45
2023-11-30T08:26:18.369Z,19.10
2023-11-30T08:28:46.023Z,18.47
2023-11-30T08:31:14.394Z,19.37
2023-11-30T08:33:41.707Z,18.02
2023-11-30T08:36:09.601Z,19.67
2023-11-30T08:38:39.790Z,18.25
2023-11-30T08:41:07.417Z,18.25
2023-11-30T08:43:34.630Z,17.98
2023-11-30T08:46:02.226Z,19.10
2023-11-30T08:48:30.649Z,19.38
2023-11-30T08:50:57.900Z,19.65
2023-11-30T08:53:25.689Z,20.08
2023-11-30T08:55:52.933Z,19.67
2023-11-30T08:58:20.408Z,19.35
2023-11-30T09:00:47.935Z,20.65
2023-11-30T09:03:15.331Z,20.30
2023-11-30T09:05:42.701Z,19.80
2023-11-30T09:08:10.041Z,19.92
2023-11-30T09:10:37.275Z,18.80
2023-11-30T09:13:04.845Z,20.25
2023-11-30T09:15:33.231Z,20.65
2023-11-30T09:18:02.590Z,20.60
2023-11-30T09:20:31.498Z,21.85
2023-11-30T09:22:58.733Z,20.33
2023-11-30T09:25:26.564Z,21.77
2023-11-30T09:27:53.928Z,20.08
2023-11-30T09:30:21.683Z,20.10
2023-11-30T09:32:49.139Z,20.92
2023-11-30T09:35:16.804Z,20.33
2023-11-30T09:37:44.186Z,20.83
2023-11-30T09:40:12.111Z,20.25
2023-11-30T09:42:39.337Z,21.55
2023-11-30T09:45:08.960Z,20.60
2023-11-30T09:47:36.473Z,23.63
2023-11-30T09:50:04.404Z,22.20
2023-11-30T09:52:33.119Z,21.23
2023-11-30T09:55:00.777Z,21.55
2023-11-30T09:57:28.051Z,22.95
2023-11-30T09:59:56.708Z,21.17
2023-11-30T10:02:25.388Z,22.02
2023-11-30T10:04:52.790Z,21.10
2023-11-30T10:07:20.023Z,20.83
2023-11-30T10:09:47.647Z,18.10
2023-11-30T10:12:15.846Z,16.85
2023-11-30T10:14:43.723Z,16.75
2023-11-30T10:17:10.973Z,18.90
2023-11-30T10:19:43.143Z,18.42
2023-11-30T10:22:10.763Z,20.52
2023-11-30T10:24:40.989Z,16.08
2023-11-30T10:27:11.370Z,14.75
2023-11-30T10:29:43.483Z,12.40
2023-11-30T10:32:14.636Z,13.57
2023-11-30T10:34:48.449Z,13.18
2023-11-30T10:37:20.927Z,12.10
2023-11-30T10:39:56.694Z,11.80
2023-11-30T10:42:25.263Z,10.23
2023-11-30T10:44:55.160Z,9.25
2023-11-30T10:47:23.370Z,8.43
2023-11-30T10:49:51.234Z,8.77
2023-11-30T10:52:20.009Z,9.90
2023-11-30T10:55:11.861Z,11.18
2023-11-30T10:57:44.141Z,11.23
2023-11-30T11:00:13.876Z,13.48
2023-11-30T11:02:49.560Z,13.68
2023-11-30T11:05:20.193Z,15.38
2023-11-30T11:07:52.659Z,13.10
2023-11-30T11:10:25.526Z,12.93
2023-11-30T11:12:53.284Z,14.63
2023-11-30T11:15:25.297Z,16.30
2023-11-30T11:18:01.837Z,14.73
2023-11-30T11:20:30.646Z,13.13
2023-11-30T11:23:11.056Z,13.05
2023-11-30T11:25:45.082Z,13.48
2023-11-30T11:28:12.967Z,13.07
2023-11-30T11:30:45.729Z,12.95
2023-11-30T11:33:16.461Z,13.93
2023-11-30T11:35:44.144Z,13.55
2023-11-30T11:38:11.837Z,12.68
2023-11-30T11:40:40.769Z,11.88
2023-11-30T11:43:08.168Z,11.32
2023-11-30T11:45:37.196Z,12.70
2023-11-30T11:48:04.966Z,12.60
2023-11-30T11:50:32.861Z,13.52
2023-11-30T11:53:05.261Z,12.27
2023-11-30T11:55:32.854Z,12.38
2023-11-30T11:58:00.256Z,14.23
2023-11-30T12:00:27.858Z,15.82
2023-11-30T12:03:07.155Z,16.23
2023-11-30T12:05:34.553Z,15.82
2023-11-30T12:08:02.805Z,17.98
2023-11-30T12:10:31.597Z,15.75
2023-11-30T12:13:01.232Z,17.25
2023-11-30T12:15:29.882Z,18.15
2023-11-30T12:17:57.369Z,18.83
2023-11-30T12:20:25.628Z,18.15
2023-11-30T12:22:52.841Z,17.73
2023-11-30T12:25:20.201Z,18.65
2023-11-30T12:27:47.635Z,19.13
2023-11-30T12:30:15.330Z,18.88
2023-11-30T12:32:43.079Z,18.55
2023-11-30T12:35:10.920Z,17.98
2023-11-30T12:37:39.394Z,17.58
2023-11-30T12:40:11.856Z,19.42
2023-11-30T12:42:39.154Z,18.95
2023-11-30T12:45:07.150Z,18.65
2023-11-30T12:47:34.483Z,20.38
2023-11-30T12:50:01.780Z,19.90
2023-11-30T12:52:28.989Z,20.60
2023-11-30T12:54:56.307Z,19.85
2023-11-30T12:57:23.783Z,21.17
2023-11-30T12:59:51.146Z,20.42
2023-11-30T13:02:18.775Z,21.20
2023-11-30T13:04:46.156Z,21.33
2023-11-30T13:07:13.625Z,21.73
2023-11-30T13:09:40.949Z,16.48
2023-11-30T13:12:08.772Z,22.35
2023-11-30T13:14:35.941Z,23.98
2023-11-30T13:17:03.444Z,24.65
2023-11-30T13:19:30.868Z,26.45
2023-11-30T13:21:58.271Z,23.92
2023-11-30T13:24:26.463Z,25.20
2023-11-30T13:26:53.828Z,26.45
2023-11-30T13:29:21.158Z,26.17
2023-11-30T13:31:48.385Z,26.67
2023-11-30T13:34:15.672Z,25.33
2023-11-30T13:36:42.987Z,29.45
2023-11-30T13:39:11.672Z,29.27
2023-11-30T13:41:38.878Z,28.63
2023-11-30T13:44:06.520Z,28.27
2023-11-30T13:46:33.874Z,29.15
2023-11-30T13:49:01.500Z,27.70
2023-11-30T13:51:28.905Z,27.38
2023-11-30T13:53:56.444Z,28.85
2023-11-30T13:56:24.082Z,26.33
2023-11-30T13:58:51.292Z,25.45
2023-11-30T14:01:19.302Z,26.20
2023-11-30T14:03:46.731Z,27.33
2023-11-30T14:06:14.302Z,24.88
2023-11-30T14:08:41.606Z,25.70
2023-11-30T14:11:13.337Z,26.17
2023-11-30T14:13:40.687Z,26.25
2023-11-30T14:16:08.344Z,24.70
2023-11-30T14:18:35.578Z,25.15
2023-11-30T14:21:03.237Z,21.75
2023-11-30T14:23:30.543Z,22.83
2023-11-30T14:25:58.139Z,25.20
2023-11-30T14:28:26.477Z,25.08
2023-11-30T14:30:53.999Z,27.30
2023-11-30T14:33:21.533Z,28.40
2023-11-30T14:35:48.972Z,27.00
2023-11-30T14:38:16.211Z,30.17
2023-11-30T14:40:43.966Z,27.65
2023-11-30T14:43:11.187Z,29.70
2023-11-30T14:45:38.559Z,27.88
2023-11-30T14:48:07.852Z,28.92
2023-11-30T14:50:36.654Z,28.65
2023-11-30T14:53:04.062Z,29.73
2023-11-30T14:55:31.389Z,27.40
2023-11-30T14:57:58.664Z,28.52
2023-11-30T15:00:26.665Z,29.60
2023-11-30T15:02:54.115Z,28.17
2023-11-30T15:05:21.940Z,27.02
2023-11-30T15:07:49.217Z,27.90
2023-11-30T15:10:16.448Z,27.77
2023-11-30T15:12:43.786Z,27.25
2023-11-30T15:15:15.484Z,28.95
2023-11-30T15:17:48.264Z,29.08
2023-11-30T15:20:16.224Z,29.30
2023-11-30T15:22:43.889Z,28.80
2023-11-30T15:25:19.035Z,29.85
2023-11-30T15:27:47.870Z,29.65
2023-11-30T15:30:15.988Z,28.55
2023-11-30T15:32:43.463Z,26.38
2023-11-30T15:35:10.751Z,26.95
2023-11-30T15:37:38.409Z,58.50
2023-11-30T15:40:12.096Z,32.40
2023-11-30T15:42:40.157Z,28.77
2023-11-30T15:45:11.732Z,29.80
2023-11-30T15:47:41.005Z,28.60
2023-11-30T15:50:08.644Z,42.53
2023-11-30T15:52:35.838Z,46.10
2023-11-30T15:55:03.574Z,50.45
2023-11-30T15:57:30.964Z,41.70
2023-11-30T15:59:58.393Z,52.40
2023-11-30T16:02:25.708Z,46.42
2023-11-30T16:04:53.042Z,55.90
2023-11-30T16:07:20.279Z,53.90
2023-11-30T16:09:47.672Z,55.47
2023-11-30T16:12:14.953Z,49.33
2023-11-30T16:14:42.241Z,50.55
2023-11-30T16:17:09.716Z,41.65
2023-11-30T16:19:37.266Z,35.28
2023-11-30T16:22:05.340Z,46.30
2023-11-30T16:24:32.694Z,45.50
2023-11-30T16:27:07.574Z,50.28
2023-11-30T16:29:35.218Z,54.47
2023-11-30T16:32:03.031Z,62.15
2023-11-30T16:34:32.544Z,48.75
2023-11-30T16:37:00.378Z,54.75
2023-11-30T16:39:28.829Z,57.92
2023-11-30T16:41:57.480Z,59.28
2023-11-30T16:44:24.715Z,56.88
2023-11-30T16:46:52.048Z,56.50
2023-11-30T16:49:19.412Z,48.40
2023-11-30T16:51:52.642Z,49.92
2023-11-30T16:54:24.500Z,53.25
2023-11-30T16:56:51.695Z,59.65
2023-11-30T16:59:18.955Z,58.63
2023-11-30T17:01:46.172Z,49.53
2023-11-30T17:04:13.872Z,46.28
2023-11-30T17:06:41.078Z,43.67
2023-11-30T17:09:08.541Z,48.50
2023-11-30T17:11:36.193Z,54.88
2023-11-30T17:14:03.283Z,62.47
2023-11-30T17:16:31.352Z,60.88
2023-11-30T17:18:58.645Z,67.72
2023-11-30T17:21:26.241Z,77.03
2023-11-30T17:23:53.618Z,65.57
2023-11-30T17:26:21.108Z,53.35
2023-11-30T17:28:48.457Z,51.25
2023-11-30T17:31:16.450Z,54.25
2023-11-30T17:33:44.195Z,59.25
2023-11-30T17:36:12.962Z,57.63
2023-11-30T17:38:40.624Z,52.50
2023-11-30T17:41:09.596Z,56.63
2023-11-30T17:43:36.702Z,49.78
2023-11-30T17:46:09.757Z,50.05
2023-11-30T17:48:37.265Z,65.90
2023-11-30T17:51:06.504Z,55.03
2023-11-30T17:53:34.401Z,51.72
2023-11-30T17:56:01.537Z,55.15
2023-11-30T17:58:29.488Z,55.38
2023-11-30T18:00:58.597Z,49.80
2023-11-30T18:03:26.190Z,57.50
2023-11-30T18:05:53.321Z,55.05
2023-11-30T18:08:20.792Z,55.72
2023-11-30T18:10:49.576Z,54.67
2023-11-30T18:13:17.293Z,48.42
2023-11-30T18:15:44.511Z,50.45
2023-11-30T18:18:12.136Z,55.05
2023-11-30T18:20:39.815Z,60.58
2023-11-30T18:23:07.352Z,78.25
2023-11-30T18:25:34.544Z,63.22
2023-11-30T18:28:02.572Z,69.75
2023-11-30T18:30:29.986Z,75.72
2023-11-30T18:32:57.855Z,81.93
2023-11-30T18:35:25.573Z,78.90
2023-11-30T18:37:53.024Z,70.43
2023-11-30T18:40:20.263Z,64.70
2023-11-30T18:42:48.232Z,72.63
2023-11-30T18:45:15.335Z,65.35
2023-11-30T18:47:42.739Z,80.77
2023-11-30T18:50:10.574Z,79.93
2023-11-30T18:52:38.250Z,84.60
2023-11-30T18:55:06.042Z,82.20
2023-11-30T18:57:34.130Z,77.95
2023-11-30T19:00:02.340Z,89.50
2023-11-30T19:02:29.794Z,83.43
2023-11-30T19:04:58.748Z,91.70
2023-11-30T19:07:26.152Z,88.15
2023-11-30T19:09:53.600Z,102.85
2023-11-30T19:12:21.239Z,111.15
2023-11-30T19:14:48.488Z,96.78
2023-11-30T19:17:15.611Z,103.80
2023-11-30T19:19:42.775Z,121.10
2023-11-30T19:22:09.919Z,85.03
2023-11-30T19:24:38.090Z,114.37
2023-11-30T19:27:05.516Z,82.13
2023-11-30T19:29:33.159Z,71.33
2023-11-30T19:32:00.343Z,74.80
2023-11-30T19:34:27.442Z,69.65
2023-11-30T19:36:54.653Z,75.20
2023-11-30T19:39:23.251Z,85.00
2023-11-30T19:41:50.413Z,61.67
2023-11-30T19:44:17.609Z,51.20
2023-11-30T19:46:48.614Z,59.90
2023-11-30T19:49:16.324Z,64.40
2023-11-30T19:51:43.862Z,59.83
2023-11-30T19:54:11.078Z,66.47
2023-11-30T19:56:39.706Z,60.13
2023-11-30T19:59:06.927Z,67.23
2023-11-30T20:01:34.530Z,59.92
2023-11-30T20:04:01.955Z,56.37
2023-11-30T20:06:29.145Z,60.93
2023-11-30T20:08:56.303Z,64.23
2023-11-30T20:11:23.514Z,54.77
2023-11-30T20:13:50.657Z,63.30
2023-11-30T20:16:17.894Z,58.60
2023-11-30T20:18:45.600Z,69.13
2023-11-30T20:21:23.029Z,65.90
2023-11-30T20:23:50.307Z,56.33
2023-11-30T20:26:19.580Z,55.30
2023-11-30T20:28:47.628Z,53.35
2023-11-30T20:31:15.479Z,57.87
2023-11-30T20:33:43.360Z,65.87
2023-11-30T20:36:11.089Z,58.67
2023-11-30T20:38:40.743Z,62.83
2023-11-30T20:41:09.801Z,61.93
2023-11-30T20:43:37.590Z,63.70
2023-11-30T20:46:04.980Z,65.47
2023-11-30T20:52:12.821Z,63.50
2023-11-30T20:54:40.361Z,62.23
2023-11-30T20:57:09.505Z,67.53
2023-11-30T20:59:37.662Z,66.53
2023-11-30T21:02:05.958Z,68.00
2023-11-30T21:04:33.253Z,64.67
2023-11-30T21:07:03.367Z,62.67
2023-11-30T21:09:30.784Z,70.45
2023-11-30T21:11:58.336Z,74.18
2023-11-30T21:14:25.601Z,73.07
2023-11-30T21:16:53.037Z,87.57
2023-11-30T21:19:23.409Z,86.40
2023-11-30T21:21:50.586Z,78.73
2023-11-30T21:24:18.031Z,82.13
2023-11-30T21:26:45.379Z,83.33
2023-11-30T21:29:12.588Z,68.60
2023-11-30T21:31:40.177Z,58.30
2023-11-30T21:34:08.033Z,52.17
2023-11-30T21:36:35.866Z,54.40
2023-11-30T21:39:03.290Z,48.65
2023-11-30T21:41:31.020Z,64.40
2023-11-30T21:43:59.332Z,48.03
2023-11-30T21:46:26.533Z,47.77
2023-11-30T21:48:54.954Z,49.83
2023-11-30T21:51:22.247Z,52.17
2023-11-30T21:53:49.921Z,42.40
2023-11-30T21:56:17.519Z,44.90
2023-11-30T21:58:45.107Z,50.67
2023-11-30T22:01:12.470Z,36.53
2023-11-30T22:03:40.961Z,47.97
2023-11-30T22:06:08.808Z,43.43
2023-11-30T22:08:36.280Z,46.22
2023-11-30T22:11:03.648Z,47.03
2023-11-30T22:13:31.192Z,47.20
2023-11-30T22:16:03.966Z,45.47
2023-11-30T22:18:37.789Z,42.80
2023-11-30T22:21:05.362Z,42.23
2023-11-30T22:23:33.910Z,44.60
2023-11-30T22:26:04.357Z,37.53
2023-11-30T22:28:32.315Z,43.73
2023-11-30T22:31:00.283Z,38.93
2023-11-30T22:33:27.685Z,40.67
2023-11-30T22:35:54.924Z,35.80
2023-11-30T22:38:22.195Z,39.33
2023-11-30T22:40:49.370Z,39.90
2023-11-30T22:43:16.676Z,49.67
2023-11-30T22:45:44.010Z,77.97
2023-11-30T22:48:11.237Z,66.30
2023-11-30T22:50:38.724Z,54.30
2023-11-30T22:53:06.086Z,50.90
2023-11-30T22:55:33.420Z,47.30
2023-11-30T22:58:00.709Z,43.10
2023-11-30T23:00:28.170Z,49.73
2023-11-30T23:02:55.628Z,59.53
2023-11-30T23:05:23.341Z,56.10
2023-11-30T23:07:50.515Z,54.13
2023-11-30T23:10:18.809Z,52.60
2023-11-30T23:12:46.348Z,52.30
2023-11-30T23:15:13.763Z,59.40
2023-11-30T23:17:41.003Z,66.83
2023-11-30T23:20:08.895Z,60.23
2023-11-30T23:22:36.926Z,56.57
2023-11-30T23:25:04.345Z,55.97
2023-11-30T23:27:31.584Z,52.03
2023-11-30T23:29:58.813Z,58.80
2023-11-30T23:32:26.527Z,42.77
2023-11-30T23:34:53.879Z,47.17
2023-11-30T23:37:21.012Z,39.13
2023-11-30T23:39:49.895Z,41.67
2023-11-30T23:42:17.385Z,42.10
2023-11-30T23:44:44.580Z,41.93
2023-11-30T23:47:11.932Z,42.03
2023-11-30T23:49:39.184Z,43.07
2023-11-30T23:52:06.829Z,41.57
2023-11-30T23:54:34.286Z,38.83
2023-11-30T23:57:01.507Z,41.93
2023-11-30T23:59:28.691Z,40.53
